Terminal Aerodrome Forecast
Issued by NWS Charleston, WV

Current Version | Previous Version | Text Only | Print | Product List | Glossary Off
Versions: 1 2 3 4 5 6 7 8 9 10 11 12 13 14 15 16 17 18 19 20 21 22 23 24 25 26 27

205
FTUS41 KRLX 151120
TAFCRW
TAF
KCRW 151120Z 1512/1612 00000KT 1 1/2SM BR OVC003
     FM151400 00000KT 3SM BR OVC006
     FM151600 VRB03KT 6SM BR OVC010
     FM152100 VRB02KT P6SM BKN020
     FM160400 VRB02KT 5SM -RA BKN015=

USA.gov is the U.S. government's official web portal to all federal, state and local government web resources and services.